Time;durP1;ratioP1;P1;durP2;ratioP2;P2;SDS_P1;SDS_P2;PMS_P1;PMS_P2;Temp;Humidity;BMP_temperature;BMP_pressure;BME280_temperature;BME280_humidity;BME280_pressure;Samples;Min_cycle;Max_cycle;Signal;HPM_P1;HPM_P2
2023/01/27 00:14:30;;;;;;;44.53;21.45;;;;;;;0.46;76.80;100487.50;30855121;28;96572;-75
2023/01/27 00:29:31;;;;;;;42.20;19.90;;;;;;;0.37;76.76;100488.09;30853423;28;96692;-65
2023/01/27 00:44:31;;;;;;;46.05;20.25;;;;;;;0.35;76.96;100505.69;30853246;28;97142;-64
2023/01/27 00:59:31;;;;;;;42.03;18.90;;;;;;;0.35;77.02;100513.56;30852047;28;96650;-65
2023/01/27 01:14:32;;;;;;;52.35;20.33;;;;;;;0.35;77.25;100522.25;30871628;28;97045;-69
2023/01/27 01:29:32;;;;;;;45.05;20.55;;;;;;;0.44;77.79;100516.44;30869824;28;96758;-64
2023/01/27 01:44:33;;;;;;;55.35;22.52;;;;;;;0.43;77.39;100506.06;30868429;28;96567;-65
2023/01/27 01:59:56;;;;;;;61.03;22.45;;;;;;;0.25;77.65;100506.28;30866470;28;96705;-65
2023/01/27 02:14:57;;;;;;;61.20;22.60;;;;;;;0.13;77.77;100518.34;30864018;28;97577;-68
2023/01/27 02:29:58;;;;;;;59.05;23.27;;;;;;;0.10;78.01;100518.53;30864386;28;96709;-73
2023/01/27 02:44:58;;;;;;;63.63;23.45;;;;;;;0.17;78.32;100519.00;30862727;28;96757;-72
2023/01/27 02:59:58;;;;;;;54.65;22.50;;;;;;;0.15;78.27;100515.63;30860959;28;96815;-67
2023/01/27 03:30:18;;;;;;;62.42;21.80;;;;;;;0.24;78.87;100512.44;30857782;28;96996;-73
2023/01/27 04:00:37;;;;;;;56.45;22.63;;;;;;;0.23;78.90;100508.13;30855822;28;97016;-67
2023/01/27 04:15:37;;;;;;;54.97;23.05;;;;;;;0.27;78.91;100508.78;30852616;28;97109;-68
2023/01/27 04:30:38;;;;;;;60.60;25.38;;;;;;;0.30;79.85;100514.69;30850643;28;96633;-74
2023/01/27 04:45:38;;;;;;;65.68;27.83;;;;;;;0.44;79.85;100507.75;30866032;28;97439;-75
2023/01/27 05:00:39;;;;;;;82.88;28.75;;;;;;;0.57;79.77;100516.50;30870868;28;96554;-66
2023/01/27 05:15:39;;;;;;;25.83;11.45;;;;;;;0.67;79.94;100529.88;30800733;28;97246;-63
2023/01/27 05:30:39;;;;;;;28.88;12.07;;;;;;;0.70;79.70;100547.16;30835742;28;97438;-63
2023/01/27 05:45:40;;;;;;;38.15;13.80;;;;;;;0.73;79.96;100550.44;30841023;28;97123;-63
2023/01/27 06:00:40;;;;;;;48.88;12.95;;;;;;;0.62;79.84;100561.63;30864036;28;97281;-65
2023/01/27 06:15:44;;;;;;;28.70;12.00;;;;;;;0.67;80.07;100575.28;30847317;28;97312;-64
2023/01/27 06:30:45;;;;;;;26.37;13.00;;;;;;;0.64;80.05;100591.22;30835627;28;97157;-68
2023/01/27 06:45:48;;;;;;;30.48;11.77;;;;;;;0.56;80.16;100601.34;30740115;28;97136;-67
2023/01/27 07:00:49;;;;;;;34.83;12.63;;;;;;;0.70;80.37;100594.38;30806195;28;96907;-67
2023/01/27 07:15:54;;;;;;;33.50;12.05;;;;;;;0.73;80.36;100588.97;30804914;28;96970;-69
2023/01/27 07:30:58;;;;;;;27.35;10.95;;;;;;;0.82;80.49;100606.72;30812732;28;96701;-71
2023/01/27 07:45:59;;;;;;;40.83;12.93;;;;;;;0.84;80.20;100615.34;30843129;28;97411;-69
2023/01/27 08:01:04;;;;;;;28.02;11.05;;;;;;;0.92;80.40;100614.88;30822721;28;97134;-69
2023/01/27 08:16:05;;;;;;;;;;;;;;;0.91;80.02;100619.25;30728225;28;96721;-69
2023/01/27 08:31:10;;;;;;;34.28;10.30;;;;;;;0.93;80.56;100621.78;30727435;28;96729;-68
2023/01/27 08:46:11;;;;;;;28.27;9.60;;;;;;;0.95;80.13;100639.09;30730143;28;96688;-70
2023/01/27 09:01:12;;;;;;;27.25;11.25;;;;;;;0.91;80.32;100644.66;30725862;28;96616;-69
2023/01/27 09:16:12;;;;;;;86.95;33.17;;;;;;;1.04;80.88;100660.44;30737412;28;97014;-71
2023/01/27 09:31:12;;;;;;;82.68;33.03;;;;;;;1.04;80.28;100681.44;30759420;28;97039;-69
2023/01/27 09:46:53;;;;;;;72.30;30.05;;;;;;;0.94;79.96;100689.88;30756068;28;97211;-68
2023/01/27 10:02:21;;;;;;;77.32;30.20;;;;;;;0.92;79.84;100683.06;30744366;28;97239;-64
2023/01/27 10:17:47;;;;;;;62.17;27.55;;;;;;;0.97;80.26;100671.34;30735903;28;98461;-64
2023/01/27 10:33:08;;;;;;;50.08;25.52;;;;;;;1.18;80.41;100684.03;30735134;28;97351;-64
2023/01/27 10:48:26;;;;;;;44.30;18.75;;;;;;;1.29;80.70;100681.56;30735559;28;98403;-62
2023/01/27 11:03:31;;;;;;;51.30;22.77;;;;;;;1.18;80.17;100687.50;30749524;28;96808;-70
2023/01/27 11:18:36;;;;;;;51.42;22.60;;;;;;;1.06;79.67;100687.44;30806794;28;98455;-72
2023/01/27 11:34:12;;;;;;;63.42;22.75;;;;;;;0.85;80.01;100674.75;30858433;28;96718;-71
2023/01/27 11:49:22;;;;;;;66.45;25.52;;;;;;;0.69;79.68;100681.88;30868465;28;97000;-71
2023/01/27 12:04:28;;;;;;;57.45;22.40;;;;;;;0.64;80.27;100683.00;30844032;28;97046;-66
2023/01/27 12:19:34;;;;;;;47.53;22.35;;;;;;;0.68;79.77;100670.53;30760775;28;98270;-72
2023/01/27 12:34:36;;;;;;;60.33;22.92;;;;;;;0.56;79.68;100658.16;30792685;28;96648;-66
2023/01/27 12:49:39;;;;;;;67.20;24.17;;;;;;;0.57;79.55;100662.47;30767804;28;97687;-68
2023/01/27 13:04:41;;;;;;;62.50;25.83;;;;;;;0.61;80.20;100675.28;30819519;28;96743;-71
2023/01/27 13:19:45;;;;;;;57.90;24.30;;;;;;;0.57;79.90;100684.28;30794017;28;96795;-69
2023/01/27 13:35:04;;;;;;;65.83;24.40;;;;;;;0.63;80.02;100699.66;30844404;28;96659;-69
2023/01/27 13:50:17;;;;;;;66.95;23.65;;;;;;;0.63;80.39;100712.78;30800779;28;97099;-68
2023/01/27 14:05:50;;;;;;;64.50;23.92;;;;;;;0.67;80.29;100732.63;30827804;28;97715;-67
2023/01/27 14:20:50;;;;;;;59.40;25.70;;;;;;;0.69;79.87;100745.63;30784329;28;97252;-68
2023/01/27 14:35:57;;;;;;;56.97;23.80;;;;;;;0.68;80.44;100736.06;30813047;28;96716;-70
2023/01/27 14:51:28;;;;;;;43.55;19.45;;;;;;;0.63;79.92;100741.63;30806171;28;96764;-70
2023/01/27 15:06:50;;;;;;;44.65;20.92;;;;;;;0.42;80.08;100735.03;30789470;28;96876;-71
2023/01/27 15:22:29;;;;;;;42.25;21.65;;;;;;;0.39;80.40;100729.97;30801034;28;97133;-75
2023/01/27 15:37:30;;;;;;;46.40;21.70;;;;;;;0.47;80.66;100756.56;30840034;28;96764;-67
2023/01/27 15:52:46;;;;;;;44.95;21.02;;;;;;;0.45;80.76;100758.44;30761703;28;97450;-70
2023/01/27 16:07:51;;;;;;;44.88;20.75;;;;;;;0.49;80.42;100770.41;30797879;28;96717;-70
2023/01/27 16:23:04;;;;;;;45.30;21.73;;;;;;;0.49;80.47;100770.41;30836584;28;97348;-67
2023/01/27 16:38:18;;;;;;;49.65;21.52;;;;;;;0.47;80.35;100769.69;30850768;28;97733;-67
2023/01/27 16:53:21;;;;;;;48.17;20.60;;;;;;;0.49;80.31;100786.16;30859095;28;96800;-67
2023/01/27 17:08:23;;;;;;;60.50;23.07;;;;;;;0.59;80.59;100792.56;30856025;28;97042;-67
2023/01/27 17:23:32;;;;;;;43.58;20.23;;;;;;;0.60;81.07;100785.53;30841543;28;96783;-69
2023/01/27 17:38:46;;;;;;;53.17;22.95;;;;;;;0.55;80.90;100792.81;30856447;28;97051;-68
2023/01/27 17:53:48;;;;;;;34.93;17.37;;;;;;;0.62;80.97;100823.81;30853143;28;98356;-68
2023/01/27 18:08:52;;;;;;;34.15;17.20;;;;;;;0.66;80.84;100830.59;30853673;28;96780;-68
2023/01/27 18:23:57;;;;;;;41.73;20.10;;;;;;;0.70;81.08;100830.38;30852065;28;97262;-68
2023/01/27 18:38:58;;;;;;;46.67;19.00;;;;;;;0.78;80.84;100839.50;30849592;28;97624;-68
2023/01/27 18:53:58;;;;;;;41.30;18.73;;;;;;;0.76;80.87;100838.75;30841222;28;97359;-71
2023/01/27 19:08:59;;;;;;;36.30;17.63;;;;;;;0.76;81.20;100836.13;30824340;28;97250;-72
2023/01/27 19:24:00;;;;;;;42.83;18.98;;;;;;;0.78;81.42;100855.25;30839414;28;97119;-72
2023/01/27 19:39:15;;;;;;;31.92;17.13;;;;;;;0.79;81.24;100856.94;30808728;28;97037;-75
2023/01/27 19:54:16;;;;;;;37.00;19.70;;;;;;;0.76;81.67;100872.84;30721387;28;97061;-73
2023/01/27 20:09:16;;;;;;;39.85;19.73;;;;;;;0.80;81.26;100884.00;30802308;28;100251;-75
2023/01/27 20:24:18;;;;;;;36.50;18.52;;;;;;;0.78;81.50;100898.97;30841581;28;97019;-70
2023/01/27 20:39:18;;;;;;;53.50;28.00;;;;;;;0.76;81.46;100917.44;30841138;28;96922;-71
2023/01/27 20:54:19;;;;;;;37.03;18.38;;;;;;;0.81;81.23;100909.31;30801902;28;97418;-75
2023/01/27 21:09:19;;;;;;;33.88;17.95;;;;;;;0.65;81.41;100912.81;30724570;28;97289;-70
2023/01/27 21:24:22;;;;;;;37.80;19.38;;;;;;;0.66;81.43;100914.50;30732081;28;96720;-71
2023/01/27 21:39:23;;;;;;;36.08;16.30;;;;;;;0.66;80.89;100930.22;30757374;28;96732;-73
2023/01/27 21:54:26;;;;;;;37.65;16.35;;;;;;;0.51;81.32;100915.38;30859385;28;96636;-73
2023/01/27 22:09:27;;;;;;;32.97;15.55;;;;;;;0.44;81.36;100908.81;30857938;28;96704;-77
2023/01/27 22:24:27;;;;;;;36.15;14.82;;;;;;;0.52;81.43;100890.00;30854681;28;96780;-77
2023/01/27 22:39:27;;;;;;;35.58;16.00;;;;;;;0.62;81.43;100888.56;30772548;28;97076;-74
2023/01/27 22:54:28;;;;;;;35.72;13.52;;;;;;;0.68;81.24;100885.56;30731555;28;96697;-75
2023/01/27 23:09:28;;;;;;;29.75;14.23;;;;;;;0.70;81.46;100872.34;30730075;28;97087;-75
2023/01/27 23:24:29;;;;;;;27.85;13.85;;;;;;;0.69;81.50;100875.94;30727921;28;97000;-74
2023/01/27 23:39:29;;;;;;;36.40;14.98;;;;;;;0.61;81.24;100869.34;30726976;28;97317;-74
2023/01/27 23:54:31;;;;;;;28.23;14.23;;;;;;;0.67;81.82;100858.50;30725053;28;97731;-79
